Aviation Digital Data Service (ADDS)

Output produced by METARs form (0034 UTC 29 July 2015)
found at http://aviationweather.gov/adds/metars/
 
KHPN 282323Z 2900/2924 VRB04KT P6SM FEW050 
     FM290600 VRB03KT 6SM HZ SCT080 
     FM291400 VRB04KT P6SM FEW050 SCT250 
     FM291600 18007KT P6SM SCT050 SCT250 AMD NOT SKED